Time;durP1;ratioP1;P1;durP2;ratioP2;P2;SDS_P1;SDS_P2;PMS_P1;PMS_P2;Temp;Humidity;BMP_temperature;BMP_pressure;BME280_temperature;BME280_humidity;BME280_pressure;Samples;Min_cycle;Max_cycle;Signal;HPM_P1;HPM_P2
2022/03/30 00:01:58;;;;;;;6.67;2.75;;;;;;;11.10;41.82;100994.39;1867217;76;21192;-60
2022/03/30 00:04:26;;;;;;;6.60;3.05;;;;;;;11.07;41.70;100991.86;1848936;77;21162;-59
2022/03/30 00:06:55;;;;;;;5.80;2.35;;;;;;;11.06;42.17;100990.13;1830043;78;21136;-59
2022/03/30 00:09:24;;;;;;;10.93;2.55;;;;;;;11.08;42.28;100998.83;1796791;80;21076;-58
2022/03/30 00:11:53;;;;;;;9.93;2.90;;;;;;;11.08;42.09;100993.56;1831570;77;21139;-61
2022/03/30 00:14:22;;;;;;;7.05;3.15;;;;;;;11.08;42.23;100988.29;1833990;77;21594;-60
2022/03/30 00:16:51;;;;;;;5.78;2.35;;;;;;;11.09;42.30;100986.08;1839485;78;21072;-59
2022/03/30 00:19:21;;;;;;;7.70;3.02;;;;;;;11.09;42.34;100987.39;1792284;80;21501;-59
2022/03/30 00:21:49;;;;;;;15.88;3.00;;;;;;;11.07;42.39;100990.55;1798556;79;21176;-59
2022/03/30 00:24:18;;;;;;;5.83;2.62;;;;;;;11.06;42.55;100998.03;1824076;78;21048;-59
2022/03/30 00:26:47;;;;;;;7.20;3.10;;;;;;;11.09;42.56;100987.86;1823124;79;21215;-59
2022/03/30 00:29:15;;;;;;;5.87;2.20;;;;;;;11.11;42.48;100986.88;1824764;79;21246;-59
2022/03/30 00:31:44;;;;;;;7.08;2.55;;;;;;;11.15;42.43;100983.66;1823854;77;21279;-60
2022/03/30 00:34:13;;;;;;;8.45;3.58;;;;;;;11.16;42.39;100982.30;1832726;77;21292;-57
2022/03/30 00:36:41;;;;;;;7.58;2.40;;;;;;;11.16;42.41;100974.39;1823153;77;21043;-57
2022/03/30 00:39:10;;;;;;;5.00;2.27;;;;;;;11.16;42.49;100977.48;1794097;79;21164;-57
2022/03/30 00:41:39;;;;;;;9.20;2.47;;;;;;;11.17;42.44;100977.41;1793791;80;21121;-56
2022/03/30 00:44:12;;;;;;;4.08;1.75;;;;;;;11.17;42.45;100969.50;1847408;78;21024;-57
2022/03/30 00:46:43;;;;;;;;;;;;;;;11.19;42.46;100971.65;1849964;77;21130;-57
2022/03/30 00:49:11;;;;;;;4.85;2.35;;;;;;;11.18;42.69;100976.50;1847446;78;20123;-57
2022/03/30 00:51:40;;;;;;;5.47;2.20;;;;;;;11.14;42.73;100976.22;1845923;78;21564;-57
2022/03/30 00:54:09;;;;;;;4.35;2.08;;;;;;;11.16;42.83;100969.12;1833271;77;21074;-59
2022/03/30 00:56:40;;;;;;;3.90;2.30;;;;;;;11.17;42.77;100969.50;1794874;78;21570;-58
2022/03/30 00:59:08;;;;;;;4.78;2.85;;;;;;;11.16;42.95;100970.91;1839389;77;21487;-58
2022/03/30 01:01:37;;;;;;;9.35;3.27;;;;;;;11.14;42.97;100971.39;1830963;77;21050;-57
2022/03/30 01:04:07;;;;;;;5.50;2.37;;;;;;;11.12;43.02;100966.20;1847089;76;21156;-58
2022/03/30 01:06:36;;;;;;;6.33;2.50;;;;;;;11.13;43.00;100957.36;1851408;76;21003;-58
2022/03/30 01:09:05;;;;;;;4.78;2.42;;;;;;;11.13;43.04;100948.61;1854018;77;21230;-58
2022/03/30 01:11:34;;;;;;;5.87;2.30;;;;;;;11.12;43.15;100950.39;1853549;77;21132;-57
2022/03/30 01:14:03;;;;;;;5.28;2.45;;;;;;;11.11;43.21;100949.97;1853188;77;21477;-59
2022/03/30 01:16:32;;;;;;;6.00;2.35;;;;;;;11.10;43.21;100950.91;1822650;78;21509;-60
2022/03/30 01:19:27;;;;;;;7.28;2.70;;;;;;;11.10;43.30;100944.33;1823915;78;21048;-59
2022/03/30 01:21:56;;;;;;;6.25;2.47;;;;;;;11.10;43.31;100950.91;1887421;75;21169;-57
2022/03/30 01:24:26;;;;;;;6.22;2.67;;;;;;;11.11;43.46;100956.56;1889017;75;21112;-57
2022/03/30 01:26:55;;;;;;;6.53;2.83;;;;;;;11.08;43.42;100961.94;1891255;75;21208;-57
2022/03/30 01:32:26;;;;;;;7.80;3.35;;;;;;;10.96;43.61;100963.27;1892653;75;21732;-58
2022/03/30 01:34:57;;;;;;;4.45;2.17;;;;;;;10.95;43.71;100971.23;1889443;75;21050;-57
2022/03/30 01:37:28;;;;;;;10.88;3.12;;;;;;;10.93;43.95;100967.79;1890523;75;21100;-58
2022/03/30 01:39:59;;;;;;;7.28;2.33;;;;;;;10.92;43.93;100971.33;1887281;75;21002;-58
2022/03/30 01:42:28;;;;;;;10.65;2.62;;;;;;;10.89;44.08;100975.41;1891369;75;21084;-58
2022/03/30 01:44:57;;;;;;;5.83;2.45;;;;;;;10.88;44.18;100976.31;1891750;75;21507;-58
2022/03/30 01:47:26;;;;;;;9.95;2.98;;;;;;;10.86;44.38;100980.78;1890811;75;21047;-57
2022/03/30 01:49:56;;;;;;;7.37;2.35;;;;;;;10.85;44.32;100975.13;1890408;75;21650;-59
2022/03/30 01:52:26;;;;;;;6.85;2.47;;;;;;;10.84;44.33;100980.83;1888975;75;21442;-58
2022/03/30 01:54:54;;;;;;;4.05;2.20;;;;;;;10.84;44.43;100983.47;1891016;75;21043;-58
2022/03/30 01:57:23;;;;;;;4.95;2.12;;;;;;;10.84;44.45;100978.20;1842310;77;21050;-58
2022/03/30 01:59:52;;;;;;;6.03;2.20;;;;;;;10.84;44.58;100985.25;1861200;75;21505;-58
2022/03/30 02:02:28;;;;;;;3.92;2.08;;;;;;;10.82;44.71;100983.98;1821559;78;21146;-58
2022/03/30 02:04:54;;;;;;;6.58;2.58;;;;;;;10.84;44.60;100981.30;1837544;77;21124;-58
2022/03/30 02:07:23;;;;;;;8.68;2.58;;;;;;;10.89;44.53;100976.73;1861756;77;21123;-58
2022/03/30 02:09:52;;;;;;;6.67;2.60;;;;;;;10.94;44.39;100980.06;1857800;77;21212;-59
2022/03/30 02:12:20;;;;;;;4.12;2.67;;;;;;;10.98;44.33;100984.30;1857767;77;21061;-58
2022/03/30 02:14:51;;;;;;;5.92;2.37;;;;;;;11.00;44.23;100983.78;1861297;77;21054;-57
2022/03/30 02:17:19;;;;;;;4.90;2.22;;;;;;;11.00;44.26;100988.58;1832333;77;21366;-58
2022/03/30 02:19:48;;;;;;;8.00;1.95;;;;;;;11.03;44.31;100985.43;1857880;77;21462;-57
2022/03/30 02:22:17;;;;;;;5.67;2.75;;;;;;;11.03;44.35;100990.27;1860877;77;21065;-58
2022/03/30 02:24:46;;;;;;;5.35;2.62;;;;;;;11.05;44.41;100991.06;1851073;77;21686;-57
2022/03/30 02:27:14;;;;;;;8.63;3.12;;;;;;;11.05;44.49;100983.16;1852272;77;21098;-57
2022/03/30 02:29:43;;;;;;;11.22;3.70;;;;;;;11.04;44.42;100989.33;1852795;77;21026;-58
2022/03/30 02:32:12;;;;;;;16.23;3.75;;;;;;;11.01;44.55;100976.26;1852697;77;21694;-57
2022/03/30 02:34:41;;;;;;;13.40;4.35;;;;;;;11.01;44.50;100972.30;1852843;77;21142;-56
2022/03/30 02:39:47;;;;;;;8.93;3.45;;;;;;;11.01;44.56;100970.98;1825559;78;21119;-57
2022/03/30 02:42:16;;;;;;;8.70;3.67;;;;;;;11.01;44.55;100974.94;1843152;77;21064;-57
2022/03/30 02:44:45;;;;;;;8.33;3.30;;;;;;;11.00;44.54;100958.75;1842879;78;21632;-57
2022/03/30 02:47:14;;;;;;;6.35;2.83;;;;;;;10.99;44.55;100963.60;1842832;78;21518;-57
2022/03/30 02:49:42;;;;;;;5.15;2.67;;;;;;;10.99;44.67;100949.11;1843169;78;21064;-57
2022/03/30 02:52:11;;;;;;;7.10;2.77;;;;;;;11.05;44.71;100948.91;1843095;78;21106;-57
2022/03/30 02:54:40;;;;;;;3.92;2.50;;;;;;;11.14;44.70;100935.81;1843030;78;21060;-57
2022/03/30 02:57:08;;;;;;;8.53;3.33;;;;;;;11.23;44.60;100944.68;1842905;78;21138;-57
2022/03/30 02:59:37;;;;;;;8.20;3.10;;;;;;;11.36;44.40;100951.66;1843158;78;21133;-57
2022/03/30 03:02:07;;;;;;;5.15;2.52;;;;;;;11.42;44.29;100979.13;1843011;78;21518;-57
2022/03/30 03:04:35;;;;;;;4.60;2.42;;;;;;;11.39;44.23;100984.03;1843071;78;21052;-57
2022/03/30 03:07:05;;;;;;;6.72;2.67;;;;;;;11.35;44.33;100975.85;1842846;78;21084;-57
2022/03/30 03:09:33;;;;;;;6.10;4.58;;;;;;;11.34;44.38;100983.38;1842946;78;21060;-58
2022/03/30 03:12:02;;;;;;;8.40;2.72;;;;;;;11.31;44.43;100974.73;1842879;78;21044;-57
2022/03/30 03:14:30;;;;;;;19.10;7.97;;;;;;;11.28;44.57;100966.92;1843058;78;21064;-57
2022/03/30 03:16:59;;;;;;;8.00;3.12;;;;;;;11.27;44.52;100978.38;1842880;77;21068;-57
2022/03/30 03:19:28;;;;;;;9.33;3.50;;;;;;;11.23;44.62;100978.09;1842941;78;21056;-56
2022/03/30 03:21:57;;;;;;;6.62;2.80;;;;;;;11.19;44.58;100983.51;1842903;77;21552;-58
2022/03/30 03:24:26;;;;;;;5.65;3.27;;;;;;;11.13;44.73;100981.55;1842896;78;21064;-57
2022/03/30 03:26:54;;;;;;;7.00;2.20;;;;;;;11.09;44.78;100973.36;1842900;77;21162;-56
2022/03/30 03:29:23;;;;;;;7.87;3.00;;;;;;;11.06;44.84;100974.78;1837709;78;21546;-58
2022/03/30 03:31:52;;;;;;;7.10;2.85;;;;;;;11.06;44.87;100971.68;1795815;80;21137;-56
2022/03/30 03:34:21;;;;;;;4.80;2.37;;;;;;;11.08;44.88;100971.16;1825899;78;21548;-56
2022/03/30 03:36:49;;;;;;;5.65;2.65;;;;;;;11.11;44.86;100964.47;1825540;78;21051;-57
2022/03/30 03:39:18;;;;;;;7.65;2.92;;;;;;;11.11;44.85;100961.84;1794450;80;21162;-57
2022/03/30 03:41:47;;;;;;;5.67;2.92;;;;;;;11.13;44.85;100962.63;1825738;78;21032;-57
2022/03/30 03:44:15;;;;;;;6.30;3.50;;;;;;;11.17;44.91;100964.23;1794561;80;21121;-58
2022/03/30 03:46:44;;;;;;;7.03;3.20;;;;;;;11.23;44.91;100970.19;1825676;78;21027;-58
2022/03/30 03:49:13;;;;;;;5.83;2.67;;;;;;;11.26;44.87;100976.67;1794542;80;21129;-58
2022/03/30 03:51:41;;;;;;;10.10;3.33;;;;;;;11.28;44.84;100977.47;1825660;78;21114;-57
2022/03/30 03:54:10;;;;;;;5.85;2.77;;;;;;;11.29;44.91;100981.38;1794489;80;21038;-57
2022/03/30 03:56:40;;;;;;;8.05;3.05;;;;;;;11.28;44.94;100981.42;1825947;78;21533;-57
2022/03/30 03:59:08;;;;;;;8.33;3.30;;;;;;;11.30;45.05;100980.91;1794551;80;21485;-57
2022/03/30 04:01:38;;;;;;;5.30;2.75;;;;;;;11.33;45.15;100979.02;1825649;78;21031;-57
2022/03/30 04:04:06;;;;;;;11.10;3.42;;;;;;;11.38;45.25;100972.27;1794604;80;21527;-58
2022/03/30 04:06:35;;;;;;;7.58;3.02;;;;;;;11.40;45.19;100973.05;1825770;78;21048;-57
2022/03/30 04:09:04;;;;;;;7.17;3.42;;;;;;;11.40;45.15;100969.10;1794673;80;21115;-57
2022/03/30 04:11:33;;;;;;;9.53;3.35;;;;;;;11.40;45.23;100962.51;1825867;78;21595;-57
2022/03/30 04:14:01;;;;;;;6.10;2.75;;;;;;;11.40;45.25;100969.10;1794641;80;21055;-58
2022/03/30 04:16:30;;;;;;;8.10;2.95;;;;;;;11.43;45.36;100972.06;1825944;78;21142;-58
2022/03/30 04:18:58;;;;;;;12.78;3.50;;;;;;;11.46;45.55;100970.17;1794573;80;21046;-57
2022/03/30 04:21:27;;;;;;;7.62;3.67;;;;;;;11.47;45.50;100981.56;1825764;78;21067;-57
2022/03/30 04:23:56;;;;;;;7.17;2.65;;;;;;;11.49;45.51;100985.88;1794717;80;21153;-58
2022/03/30 04:26:25;;;;;;;5.70;2.62;;;;;;;11.52;45.51;100991.02;1825960;78;21052;-58
2022/03/30 04:28:53;;;;;;;9.35;3.27;;;;;;;11.55;45.66;100990.91;1797560;79;21525;-59
2022/03/30 04:31:22;;;;;;;10.10;3.37;;;;;;;11.57;45.73;100994.34;1856795;77;21051;-58
2022/03/30 04:33:51;;;;;;;4.80;2.50;;;;;;;11.59;45.91;100984.59;1824652;79;21113;-58
2022/03/30 04:36:20;;;;;;;8.05;3.10;;;;;;;11.63;45.91;100984.48;1856990;77;21136;-58
2022/03/30 04:38:48;;;;;;;5.62;2.83;;;;;;;11.66;45.96;100979.09;1824581;79;21587;-58
2022/03/30 04:41:17;;;;;;;5.80;2.50;;;;;;;11.69;45.88;100981.14;1857151;77;21533;-59
2022/03/30 04:43:46;;;;;;;6.20;2.47;;;;;;;11.75;45.88;100976.08;1824635;79;21497;-58
2022/03/30 04:46:15;;;;;;;8.23;3.35;;;;;;;11.82;45.77;100982.80;1857033;77;21504;-58
2022/03/30 04:48:44;;;;;;;6.65;2.92;;;;;;;11.89;45.66;100977.68;1824621;78;21520;-58
2022/03/30 04:51:13;;;;;;;8.55;3.12;;;;;;;11.96;45.54;100977.86;1857043;77;21625;-58
2022/03/30 04:53:42;;;;;;;7.40;2.83;;;;;;;12.04;45.47;100974.05;1824607;79;21535;-58
2022/03/30 04:56:10;;;;;;;6.97;2.98;;;;;;;12.10;45.43;100976.45;1856903;77;21141;-57
2022/03/30 04:58:39;;;;;;;6.87;2.80;;;;;;;12.16;45.38;100987.60;1824643;79;21062;-57
2022/03/30 05:01:07;;;;;;;6.67;2.92;;;;;;;12.21;45.45;100990.06;1857062;76;21031;-57
2022/03/30 05:03:36;;;;;;;10.38;3.15;;;;;;;12.24;45.54;100989.06;1824589;79;21159;-57
2022/03/30 05:06:05;;;;;;;7.37;2.72;;;;;;;12.27;45.48;100985.84;1856950;77;21133;-57
2022/03/30 05:08:34;;;;;;;7.10;3.22;;;;;;;12.31;45.35;100989.20;1824490;79;21207;-58
2022/03/30 05:11:03;;;;;;;7.35;3.20;;;;;;;12.36;45.21;100985.91;1857099;77;21524;-57
2022/03/30 05:13:31;;;;;;;5.33;2.62;;;;;;;12.40;45.06;100991.92;1824560;79;21545;-57
2022/03/30 05:16:00;;;;;;;7.67;3.17;;;;;;;12.45;44.76;100979.36;1857056;77;21062;-57
2022/03/30 05:18:29;;;;;;;8.78;3.85;;;;;;;12.51;44.70;100987.04;1824755;79;21078;-57
2022/03/30 05:20:57;;;;;;;4.85;2.70;;;;;;;12.53;44.69;100983.87;1857009;77;21492;-58
2022/03/30 05:23:26;;;;;;;7.55;2.58;;;;;;;12.56;44.63;100977.14;1824681;79;21074;-58
2022/03/30 05:25:55;;;;;;;5.55;2.80;;;;;;;12.57;44.54;100974.88;1857015;77;21124;-58
2022/03/30 05:28:24;;;;;;;7.15;2.85;;;;;;;12.61;44.45;100976.45;1824786;78;21133;-57
2022/03/30 05:30:52;;;;;;;6.67;2.55;;;;;;;12.65;44.46;100968.81;1828289;77;21007;-58
2022/03/30 05:33:21;;;;;;;8.33;3.50;;;;;;;12.68;44.44;100971.30;1794417;80;21485;-58
2022/03/30 05:35:50;;;;;;;8.03;3.20;;;;;;;12.71;44.36;100975.14;1825753;78;21101;-57
2022/03/30 05:38:19;;;;;;;11.65;3.42;;;;;;;12.77;44.25;100968.72;1794554;80;21498;-58
2022/03/30 05:40:48;;;;;;;6.83;2.65;;;;;;;12.80;44.20;100974.31;1822362;78;21072;-58
2022/03/30 05:43:17;;;;;;;7.83;2.75;;;;;;;12.85;44.21;100966.58;1786148;80;21108;-58
2022/03/30 05:45:45;;;;;;;9.95;3.52;;;;;;;12.92;44.09;100968.49;1817152;79;21479;-58
2022/03/30 05:48:15;;;;;;;13.22;3.92;;;;;;;12.99;43.85;100980.98;1786077;80;21043;-58
2022/03/30 05:50:45;;;;;;;8.85;3.70;;;;;;;13.04;43.60;100973.67;1817249;79;21150;-58
2022/03/30 05:53:14;;;;;;;8.58;4.95;;;;;;;13.08;43.43;100969.52;1786242;80;21616;-57
2022/03/30 05:55:44;;;;;;;7.75;2.75;;;;;;;13.12;43.40;100977.69;1817075;79;21080;-58
2022/03/30 05:58:14;;;;;;;7.42;2.37;;;;;;;13.19;43.30;100973.47;1786248;80;21182;-57
2022/03/30 06:00:44;;;;;;;7.87;3.02;;;;;;;13.23;43.23;100973.23;1817029;79;21533;-58
2022/03/30 06:03:12;;;;;;;6.30;3.10;;;;;;;13.30;43.17;100979.11;1786139;80;21499;-57
2022/03/30 06:05:41;;;;;;;6.10;3.08;;;;;;;13.36;42.98;100977.99;1817179;79;21012;-57
2022/03/30 06:08:10;;;;;;;5.55;3.05;;;;;;;13.41;42.82;100982.14;1786325;80;21122;-58
2022/03/30 06:10:39;;;;;;;4.85;2.47;;;;;;;13.47;42.79;100990.25;1817157;79;21509;-57
2022/03/30 06:13:08;;;;;;;5.55;3.00;;;;;;;13.53;42.71;100973.22;1786002;80;21067;-59
2022/03/30 06:15:38;;;;;;;8.88;3.17;;;;;;;13.58;42.49;100983.98;1817154;79;21476;-59
2022/03/30 06:18:13;;;;;;;6.30;3.20;;;;;;;13.65;42.45;100979.27;1786139;80;21055;-58
2022/03/30 06:20:40;;;;;;;7.12;2.72;;;;;;;13.69;42.20;100988.28;1802956;79;21069;-58
2022/03/30 06:23:09;;;;;;;7.67;2.95;;;;;;;13.74;41.99;100981.47;1803989;79;21063;-56
2022/03/30 06:25:38;;;;;;;4.45;2.27;;;;;;;13.80;42.00;100978.51;1804086;79;21510;-58
2022/03/30 06:28:07;;;;;;;6.47;3.10;;;;;;;13.87;41.80;100987.88;1803996;79;21036;-57
2022/03/30 06:30:35;;;;;;;7.00;3.52;;;;;;;13.97;41.93;100980.80;1807272;79;21133;-57
2022/03/30 06:33:05;;;;;;;8.38;2.80;;;;;;;14.06;41.38;100976.37;1789110;80;21173;-58
2022/03/30 06:35:33;;;;;;;7.78;3.42;;;;;;;14.14;41.29;100975.51;1818649;79;21097;-57
2022/03/30 06:38:03;;;;;;;5.87;2.90;;;;;;;14.21;40.88;100957.53;1818467;79;21058;-58
2022/03/30 06:40:32;;;;;;;7.78;3.65;;;;;;;14.24;40.86;100977.25;1818494;79;21098;-58
2022/03/30 06:43:01;;;;;;;7.85;3.30;;;;;;;14.30;40.75;100976.92;1849254;77;21087;-58
2022/03/30 06:45:30;;;;;;;13.18;3.58;;;;;;;14.36;40.81;100967.81;1849798;77;21079;-58
2022/03/30 06:48:00;;;;;;;9.60;3.08;;;;;;;14.38;40.53;100988.45;1849870;77;21128;-59
2022/03/30 06:50:32;;;;;;;4.12;3.00;;;;;;;14.37;40.74;100979.66;1849711;77;21172;-59
2022/03/30 06:52:59;;;;;;;3.42;2.10;;;;;;;14.41;40.75;100980.36;1849644;77;21125;-59
2022/03/30 06:55:29;;;;;;;7.78;3.83;;;;;;;14.45;40.91;100983.23;1849749;77;21461;-59
2022/03/30 06:57:57;;;;;;;6.42;3.12;;;;;;;14.48;40.87;100968.03;1849699;77;21546;-58
2022/03/30 07:00:26;;;;;;;3.95;2.62;;;;;;;14.55;40.81;100972.56;1849891;77;21120;-58
2022/03/30 07:02:55;;;;;;;7.72;3.20;;;;;;;14.60;40.64;100973.19;1849705;77;21183;-57
2022/03/30 07:05:23;;;;;;;6.78;2.92;;;;;;;14.65;40.62;100975.13;1849850;77;21054;-57
2022/03/30 07:10:39;;;;;;;6.10;2.62;;;;;;;14.79;40.54;100973.55;1849718;77;21034;-57
2022/03/30 07:16:14;;;;;;;7.45;3.00;;;;;;;14.99;40.25;100986.59;1832352;77;21215;-56
2022/03/30 07:18:42;;;;;;;7.92;2.95;;;;;;;15.09;39.90;100975.48;1798449;80;21445;-58
2022/03/30 07:21:11;;;;;;;7.22;3.30;;;;;;;15.20;39.70;100984.59;1809554;79;21085;-58
2022/03/30 07:23:40;;;;;;;9.55;3.77;;;;;;;15.28;39.19;100982.84;1817179;79;21102;-60
2022/03/30 07:26:08;;;;;;;6.67;3.33;;;;;;;15.35;39.22;100988.20;1817246;79;21078;-59
2022/03/30 07:28:37;;;;;;;4.58;2.80;;;;;;;15.44;38.49;100975.75;1817192;79;21144;-57
2022/03/30 07:31:06;;;;;;;5.25;2.62;;;;;;;15.53;38.83;100985.45;1817327;79;21461;-57
2022/03/30 07:33:35;;;;;;;5.42;2.52;;;;;;;15.63;38.64;100984.01;1829655;78;21119;-58
2022/03/30 07:36:04;;;;;;;6.33;2.45;;;;;;;15.72;38.52;100976.84;1835461;78;21570;-59
2022/03/30 07:38:33;;;;;;;27.52;8.48;;;;;;;15.83;38.28;100985.57;1835479;78;21022;-57
2022/03/30 07:41:02;;;;;;;26.45;11.00;;;;;;;15.94;37.89;100991.59;1835286;78;21029;-59
2022/03/30 07:43:30;;;;;;;12.33;3.98;;;;;;;16.12;37.60;100983.01;1835397;78;21140;-58
2022/03/30 07:45:59;;;;;;;11.38;4.08;;;;;;;16.20;37.21;100967.02;1835435;77;21050;-57
2022/03/30 07:48:27;;;;;;;12.82;3.80;;;;;;;16.34;37.24;100995.44;1835484;77;21050;-57
2022/03/30 07:50:56;;;;;;;10.45;4.30;;;;;;;16.68;37.18;100988.09;1835505;77;21050;-57
2022/03/30 07:53:25;;;;;;;15.88;6.50;;;;;;;16.96;36.07;100990.42;1835458;78;21101;-59
2022/03/30 07:55:55;;;;;;;5.35;2.95;;;;;;;17.07;36.21;100989.76;1835401;77;21062;-57
2022/03/30 07:58:25;;;;;;;8.83;3.65;;;;;;;17.27;35.92;101005.33;1835561;78;21030;-57
2022/03/30 08:00:54;;;;;;;6.87;2.92;;;;;;;17.42;34.94;100966.72;1835580;78;21484;-57
2022/03/30 08:03:23;;;;;;;20.32;5.95;;;;;;;17.51;34.56;100992.75;1835486;78;21066;-57
2022/03/30 08:05:52;;;;;;;6.92;3.77;;;;;;;17.50;34.46;100995.89;1835490;78;21061;-57
2022/03/30 08:08:20;;;;;;;10.55;3.40;;;;;;;17.51;34.48;100987.42;1835379;78;21617;-57
2022/03/30 08:10:49;;;;;;;12.15;5.83;;;;;;;17.52;34.42;101001.09;1817664;78;21148;-57
2022/03/30 08:13:17;;;;;;;6.47;3.20;;;;;;;17.54;34.08;101006.72;1817443;79;21063;-57
2022/03/30 08:15:46;;;;;;;9.28;3.75;;;;;;;17.62;34.15;100995.56;1815968;79;21099;-58
2022/03/30 08:18:15;;;;;;;7.42;3.60;;;;;;;17.75;33.97;101019.11;1814388;79;21082;-58
2022/03/30 08:23:30;;;;;;;6.53;3.52;;;;;;;17.90;33.41;100996.47;1814456;79;21090;-57
2022/03/30 08:25:59;;;;;;;8.98;4.42;;;;;;;17.89;33.14;100989.41;1814513;79;21086;-57
2022/03/30 08:28:28;;;;;;;9.75;4.17;;;;;;;17.99;33.09;100989.20;1814427;79;21059;-57
2022/03/30 08:30:56;;;;;;;6.10;3.75;;;;;;;18.02;32.71;100990.79;1814468;79;21499;-58
2022/03/30 08:33:27;;;;;;;7.80;3.83;;;;;;;17.98;32.70;100992.80;1814398;79;21038;-58
2022/03/30 08:35:56;;;;;;;8.90;4.55;;;;;;;17.98;33.24;101002.13;1814363;78;21066;-58
2022/03/30 08:38:25;;;;;;;12.78;4.10;;;;;;;18.07;33.22;100996.67;1814489;79;21075;-58
2022/03/30 08:40:57;;;;;;;10.18;4.10;;;;;;;18.08;32.84;100997.91;1814497;79;21067;-58
2022/03/30 08:43:25;;;;;;;7.92;4.58;;;;;;;18.05;32.97;100999.44;1814489;79;21058;-58
2022/03/30 08:45:59;;;;;;;5.95;2.92;;;;;;;18.05;32.12;100982.12;1814289;79;21087;-59
2022/03/30 08:48:26;;;;;;;;;;;;;;;17.92;31.76;100991.89;1817056;79;21031;-58
2022/03/30 08:50:55;;;;;;;13.43;4.08;;;;;;;18.05;32.04;100998.59;1814350;79;20152;-58
2022/03/30 08:53:25;;;;;;;12.63;4.35;;;;;;;18.25;31.92;101011.44;1814458;79;21078;-58
2022/03/30 08:55:54;;;;;;;11.30;4.42;;;;;;;18.17;31.56;100988.91;1814375;79;21175;-58
2022/03/30 08:58:23;;;;;;;12.15;4.60;;;;;;;18.28;32.07;101006.40;1814416;79;21047;-58
2022/03/30 09:00:53;;;;;;;6.95;3.75;;;;;;;18.35;32.14;101013.48;1814441;79;21095;-58
2022/03/30 09:03:22;;;;;;;9.38;4.20;;;;;;;18.24;32.23;100991.09;1811954;79;21114;-58
2022/03/30 09:05:51;;;;;;;6.30;3.42;;;;;;;18.19;32.24;101015.02;1814401;79;21090;-58
2022/03/30 09:08:25;;;;;;;14.35;4.85;;;;;;;18.10;32.55;101002.66;1814584;79;21070;-58
2022/03/30 09:10:53;;;;;;;6.53;3.42;;;;;;;18.09;32.67;101020.08;1801887;79;21114;-58
2022/03/30 09:13:23;;;;;;;10.88;4.75;;;;;;;17.99;32.54;101013.17;1801874;79;21085;-58
2022/03/30 09:15:52;;;;;;;9.10;3.83;;;;;;;17.75;32.52;101004.47;1805671;78;21517;-57
2022/03/30 09:18:21;;;;;;;6.25;4.22;;;;;;;17.59;32.71;100983.77;1819164;78;21047;-59
2022/03/30 09:20:54;;;;;;;6.92;3.67;;;;;;;17.50;32.91;100997.22;1819293;79;21534;-57
2022/03/30 09:23:27;;;;;;;10.65;4.30;;;;;;;17.42;33.09;101000.84;1819249;78;21186;-58
2022/03/30 09:25:55;;;;;;;;;;;;;;;17.40;33.25;101015.20;1822039;79;21542;-58
2022/03/30 09:28:24;;;;;;;12.55;6.42;;;;;;;17.30;33.17;101005.14;1819245;78;20170;-58
2022/03/30 09:30:54;;;;;;;7.95;3.83;;;;;;;17.12;33.56;101012.47;1819153;78;21140;-59
2022/03/30 09:33:24;;;;;;;6.75;3.55;;;;;;;17.08;33.84;101004.75;1819211;79;21621;-58
2022/03/30 09:35:53;;;;;;;7.05;2.62;;;;;;;17.02;34.00;101013.13;1819087;79;21052;-58
2022/03/30 09:38:23;;;;;;;8.95;4.97;;;;;;;16.97;34.25;101007.63;1819205;79;21116;-59
2022/03/30 09:40:57;;;;;;;10.75;6.37;;;;;;;16.97;34.46;101006.77;1819299;78;21170;-58
2022/03/30 09:43:32;;;;;;;66.10;18.87;;;;;;;17.02;34.58;101013.97;1819438;79;21470;-58
2022/03/30 09:46:08;;;;;;;12.00;6.08;;;;;;;17.11;34.63;101004.57;1819260;79;21111;-57
2022/03/30 09:48:49;;;;;;;9.25;4.72;;;;;;;17.15;34.70;101011.41;1819193;78;21059;-57
2022/03/30 09:51:12;;;;;;;7.30;3.90;;;;;;;17.08;34.56;100987.46;1817480;79;21097;-58
2022/03/30 09:53:42;;;;;;;11.08;3.80;;;;;;;16.95;34.77;101009.52;1819166;79;21598;-59
2022/03/30 09:56:16;;;;;;;10.85;3.52;;;;;;;16.89;34.91;101025.84;1819201;79;21147;-59
2022/03/30 09:58:45;;;;;;;12.95;6.78;;;;;;;16.89;35.07;101006.37;1819371;79;21055;-59
2022/03/30 10:01:23;;;;;;;8.65;3.98;;;;;;;16.97;35.01;101014.27;1818330;79;21131;-58
2022/03/30 10:03:59;;;;;;;11.50;4.75;;;;;;;16.95;35.02;101006.86;1824680;78;21081;-57
2022/03/30 10:06:34;;;;;;;11.90;4.00;;;;;;;16.97;35.05;101006.29;1824697;77;21484;-57
2022/03/30 10:09:03;;;;;;;10.45;3.95;;;;;;;17.02;35.03;101004.66;1829338;77;21548;-56
2022/03/30 10:11:32;;;;;;;25.12;8.30;;;;;;;17.01;34.85;101004.30;1838681;77;21492;-57
2022/03/30 10:14:03;;;;;;;22.87;8.90;;;;;;;17.12;34.81;101008.95;1799297;80;21174;-56
2022/03/30 10:16:32;;;;;;;18.52;7.83;;;;;;;17.29;34.65;101008.74;1799015;79;21133;-57
2022/03/30 10:19:01;;;;;;;9.85;4.37;;;;;;;17.39;34.40;101013.48;1799165;80;21547;-57
2022/03/30 10:21:32;;;;;;;10.75;4.40;;;;;;;17.47;34.38;100993.42;1799155;80;21207;-57
2022/03/30 10:24:16;;;;;;;9.40;4.58;;;;;;;17.70;34.20;101003.05;1799243;79;21185;-57
2022/03/30 10:27:05;;;;;;;16.65;7.15;;;;;;;17.87;34.00;101005.98;1799234;80;21083;-57
2022/03/30 10:29:36;;;;;;;15.38;5.67;;;;;;;18.06;33.89;101010.48;1799012;80;21090;-56
2022/03/30 10:32:23;;;;;;;15.43;6.53;;;;;;;18.35;33.66;100999.67;1817548;77;21052;-57
2022/03/30 10:34:57;;;;;;;16.57;4.78;;;;;;;18.61;33.14;100995.25;1817464;79;21107;-56
2022/03/30 10:37:36;;;;;;;5.85;3.22;;;;;;;19.03;32.89;100990.59;1817521;79;21127;-56
2022/03/30 10:40:14;;;;;;;15.48;5.75;;;;;;;19.45;32.73;100988.94;1818838;77;21040;-58
2022/03/30 10:42:57;;;;;;;6.87;4.00;;;;;;;19.42;32.29;100988.69;1823249;77;21582;-57
2022/03/30 10:45:38;;;;;;;9.08;3.77;;;;;;;19.16;32.68;100989.20;1832772;77;21215;-57
2022/03/30 10:48:09;;;;;;;13.78;5.25;;;;;;;18.97;32.51;100980.81;1823799;77;21115;-58
2022/03/30 10:50:49;;;;;;;5.47;3.35;;;;;;;18.68;33.07;100990.33;1824590;77;21095;-58
2022/03/30 10:53:35;;;;;;;9.45;3.95;;;;;;;18.56;33.13;100995.19;1824625;79;21479;-59
2022/03/30 10:56:15;;;;;;;7.03;3.50;;;;;;;18.25;32.92;101000.78;1814493;79;21188;-58
2022/03/30 10:58:56;;;;;;;8.78;3.58;;;;;;;17.80;33.33;100985.53;1813292;78;21027;-58
2022/03/30 11:01:27;;;;;;;10.05;4.17;;;;;;;17.70;33.88;100989.25;1825235;78;21104;-58
2022/03/30 11:04:17;;;;;;;10.53;4.45;;;;;;;17.67;33.77;100994.80;1822812;78;21107;-58
2022/03/30 11:06:57;;;;;;;8.90;3.70;;;;;;;17.66;33.98;100990.91;1780480;80;21107;-57
2022/03/30 11:09:33;;;;;;;10.38;4.70;;;;;;;17.75;33.91;100996.96;1780692;80;21513;-59
2022/03/30 11:12:07;;;;;;;8.50;4.00;;;;;;;18.04;33.81;100995.08;1779818;80;21056;-58
2022/03/30 11:14:39;;;;;;;14.73;4.67;;;;;;;18.33;33.54;100985.14;1763968;80;21566;-57
2022/03/30 11:17:13;;;;;;;9.60;4.30;;;;;;;18.63;33.58;100981.81;1761210;81;21570;-58
2022/03/30 11:19:57;;;;;;;9.08;3.87;;;;;;;19.06;33.49;100989.50;1761144;81;21067;-58
2022/03/30 11:22:34;;;;;;;11.63;4.50;;;;;;;19.26;32.83;100984.93;1761277;81;21075;-60
2022/03/30 11:25:09;;;;;;;9.90;4.50;;;;;;;19.40;32.97;100975.94;1761075;81;21128;-58
2022/03/30 11:27:39;;;;;;;7.62;4.17;;;;;;;19.55;33.05;100968.63;1761069;81;21138;-58
2022/03/30 11:30:13;;;;;;;7.37;4.78;;;;;;;19.57;32.47;100986.72;1761149;81;21614;-58
